Terminal Aerodrome Forecast
Issued by NWS Paducah, KY

Home | Current Version | Previous Version | Text Only | Print | Product List | Glossary On
Versions: 1 2 3 4 5 6 7 8 9 10 11 12 13 14 15 16 17 18 19 20 21 22 23 24 25 26 27 28 29 30 31 32 33 34
000
FTUS43 KPAH 181516 AAC
TAFPAH
TAF AMD
KPAH 181516Z 1815/1912 20010G18KT 3SM RA BR BKN050 OVC080
      TEMPO 1815/1817 2SM +RA BR
     FM181700 19011G19KT 5SM -SHRA VCTS OVC021CB
     FM182000 27008KT 4SM +SHRA VCTS OVC019CB
     FM190000 36015KT 2SM +SHRA BR OVC012
     FM190200 36017G25KT 3SM +SHRA BR OVC012=

USA.gov is the U.S. government's official web portal to all federal, state and local government web resources and services.